createdAt,value
2023-04-08T00:05:34.661Z,7.6
2023-04-08T00:10:31.168Z,7.6
2023-04-08T00:15:27.768Z,7.6
2023-04-08T00:20:24.269Z,7.6
2023-04-08T00:26:35.015Z,7.6
2023-04-08T00:31:31.627Z,7.6
2023-04-08T00:36:27.994Z,7.6
2023-04-08T00:41:24.539Z,7.6
2023-04-08T00:47:35.283Z,7.6
2023-04-08T00:52:31.704Z,7.5
2023-04-08T00:57:28.251Z,7.4
2023-04-08T01:02:24.980Z,7.4
2023-04-08T01:08:35.459Z,7.5
2023-04-08T01:13:31.989Z,7.5
2023-04-08T01:18:28.522Z,7.6
2023-04-08T01:23:25.040Z,7.5
2023-04-08T01:29:35.711Z,7.6
2023-04-08T01:34:32.240Z,7.6
2023-04-08T01:39:28.787Z,7.5
2023-04-08T01:44:25.328Z,7.5
2023-04-08T01:50:36.050Z,7.5
2023-04-08T01:55:32.549Z,7.4
2023-04-08T02:00:29.020Z,7.5
2023-04-08T02:05:25.585Z,7.5
2023-04-08T02:11:36.262Z,7.5
2023-04-08T02:16:32.834Z,7.5
2023-04-08T02:21:29.321Z,7.5
2023-04-08T02:26:25.869Z,7.5
2023-04-08T02:32:36.535Z,7.5
2023-04-08T02:37:33.072Z,7.5
2023-04-08T02:42:29.617Z,7.5
2023-04-08T02:47:26.211Z,7.4
2023-04-08T02:53:36.878Z,7.3
2023-04-08T02:58:33.304Z,7.2
2023-04-08T03:03:30.059Z,7.3
2023-04-08T03:08:26.474Z,7.3
2023-04-08T03:14:37.044Z,7.4
2023-04-08T03:19:33.588Z,7.4
2023-04-08T03:24:30.213Z,7.3
2023-04-08T03:29:26.641Z,7.3
2023-04-08T03:35:37.354Z,7.1
2023-04-08T03:40:33.830Z,7
2023-04-08T03:45:30.354Z,7.2
2023-04-08T03:50:26.913Z,7.2
2023-04-08T03:56:37.599Z,7
2023-04-08T04:01:34.143Z,7.1
2023-04-08T04:06:30.589Z,7.2
2023-04-08T04:11:27.270Z,7.1
2023-04-08T04:17:37.945Z,7.1
2023-04-08T04:22:34.359Z,7.2
2023-04-08T04:27:30.865Z,7
2023-04-08T04:32:27.496Z,7.1
2023-04-08T04:36:09.894Z,7.1
2023-04-08T04:38:38.113Z,7.1
2023-04-08T04:43:34.633Z,7.1
2023-04-08T04:48:31.178Z,7.1
2023-04-08T04:53:27.738Z,7.2
2023-04-08T04:58:24.231Z,7.1
2023-04-08T05:04:34.930Z,7.3
2023-04-08T05:09:31.394Z,7.2
2023-04-08T05:14:27.966Z,7.6
2023-04-08T05:19:24.495Z,7.3
2023-04-08T05:25:35.216Z,7.1
2023-04-08T05:35:28.277Z,6.9
2023-04-08T05:41:38.906Z,7.1
2023-04-08T05:46:35.443Z,7.2
2023-04-08T05:51:32.033Z,7.7
2023-04-08T05:56:28.499Z,7.4
2023-04-08T06:01:25.154Z,7.2
2023-04-08T06:07:35.702Z,7.5
2023-04-08T06:12:32.251Z,7.7
2023-04-08T06:17:28.789Z,7.7
2023-04-08T06:22:25.351Z,7.8
2023-04-08T06:28:36.283Z,7.6
2023-04-08T06:33:32.555Z,7.8
2023-04-08T06:38:29.009Z,8.3
2023-04-08T06:43:25.560Z,8.3
2023-04-08T06:49:36.252Z,8.3
2023-04-08T06:54:32.743Z,8.2
2023-04-08T06:59:29.500Z,8.3
2023-04-08T07:04:25.991Z,8.4
2023-04-08T07:10:36.507Z,8.5
2023-04-08T07:15:33.018Z,8.3
2023-04-08T07:20:32.016Z,8.3
2023-04-08T07:25:26.102Z,7.5
2023-04-08T07:31:36.828Z,7.7
2023-04-08T07:36:33.270Z,7.4
2023-04-08T07:41:29.928Z,7.3
2023-04-08T07:46:26.441Z,7.6
2023-04-08T07:52:37.080Z,7.8
2023-04-08T07:53:51.113Z,7.8
2023-04-08T07:57:33.543Z,7.8
2023-04-08T08:02:30.381Z,7.7
2023-04-08T08:07:26.650Z,7.7
2023-04-08T08:13:37.317Z,7.8
2023-04-08T08:18:33.844Z,8.1
2023-04-08T08:23:30.332Z,8
2023-04-08T08:28:26.987Z,8.1
2023-04-08T08:34:37.550Z,9.1
2023-04-08T08:39:34.083Z,9.5
2023-04-08T08:44:30.652Z,9.6
2023-04-08T08:49:27.204Z,9.6
2023-04-08T08:54:23.670Z,10
2023-04-08T09:00:34.865Z,9.7
2023-04-08T09:05:31.087Z,9.4
2023-04-08T09:10:27.428Z,9.6
2023-04-08T09:15:39.785Z,9.7
2023-04-08T09:21:34.691Z,9.6
2023-04-08T09:26:31.096Z,9.6
2023-04-08T09:31:27.709Z,9.3
2023-04-08T09:36:24.192Z,9.2
2023-04-08T09:42:34.914Z,9.1
2023-04-08T09:47:31.445Z,9.5
2023-04-08T09:52:27.970Z,9.8
2023-04-08T09:57:24.506Z,10.4
2023-04-08T10:03:35.282Z,10.4
2023-04-08T10:13:28.295Z,10.4
2023-04-08T10:18:24.705Z,9.8
2023-04-08T10:24:35.397Z,10.1
2023-04-08T10:29:31.941Z,10.8
2023-04-08T10:34:28.511Z,11.2
2023-04-08T10:39:25.057Z,11
2023-04-08T10:45:35.695Z,11.3
2023-04-08T10:50:32.171Z,11.5
2023-04-08T10:55:28.740Z,11.5
2023-04-08T11:00:25.236Z,11.8
2023-04-08T11:06:35.922Z,12.1
2023-04-08T11:11:32.774Z,11.8
2023-04-08T11:16:29.162Z,11.3
2023-04-08T11:21:25.527Z,10.8
2023-04-08T11:27:36.273Z,10.9
2023-04-08T11:32:32.778Z,10.7
2023-04-08T11:37:29.719Z,10.6
2023-04-08T11:42:25.774Z,10.5
2023-04-08T11:48:36.442Z,10.5
2023-04-08T11:53:32.980Z,10.9
2023-04-08T11:58:29.523Z,10.9
2023-04-08T12:03:26.220Z,10.9
2023-04-08T12:09:36.697Z,11.1
2023-04-08T12:14:33.245Z,11.2
2023-04-08T12:19:30.864Z,11.7
2023-04-08T12:24:26.360Z,11.8
2023-04-08T12:30:37.050Z,12
2023-04-08T12:35:33.605Z,12.6
2023-04-08T12:40:30.044Z,13
2023-04-08T12:45:26.591Z,12.7
2023-04-08T12:51:37.324Z,12.8
2023-04-08T12:56:33.791Z,13.3
2023-04-08T13:01:30.408Z,13.8
2023-04-08T13:06:26.842Z,13.7
2023-04-08T13:12:37.521Z,14.8
2023-04-08T13:17:34.078Z,15
2023-04-08T13:22:30.553Z,14.8
2023-04-08T13:27:27.129Z,14.9
2023-04-08T13:33:37.793Z,17
2023-04-08T13:38:34.279Z,19.5
2023-04-08T13:43:30.791Z,16.5
2023-04-08T13:48:27.416Z,14.9
2023-04-08T13:54:38.107Z,13.5
2023-04-08T13:59:34.648Z,14.7
2023-04-08T14:04:31.074Z,14.9
2023-04-08T14:09:27.651Z,14
2023-04-08T14:14:24.167Z,14.7
2023-04-08T14:20:34.892Z,18.5
2023-04-08T14:25:31.337Z,17.5
2023-04-08T14:30:28.116Z,16.8
2023-04-08T14:35:24.405Z,17
2023-04-08T14:41:35.118Z,17
2023-04-08T14:51:28.225Z,17.9
2023-04-08T14:56:24.753Z,16.7
2023-04-08T15:02:35.484Z,17.5
2023-04-08T15:07:31.937Z,17.3
2023-04-08T15:12:28.415Z,16.9
2023-04-08T15:17:25.085Z,18.9
2023-04-08T15:23:35.692Z,18.3
2023-04-08T15:28:32.172Z,17.2
2023-04-08T15:33:28.687Z,16.3
2023-04-08T15:38:25.255Z,15.1
2023-04-08T15:44:35.919Z,13.8
2023-04-08T15:49:32.400Z,17
2023-04-08T15:54:31.049Z,16.4
2023-04-08T15:59:25.538Z,14.5
2023-04-08T16:05:36.201Z,13.2
2023-04-08T16:10:32.691Z,13.1
2023-04-08T16:15:29.305Z,13.6
2023-04-08T16:20:26.368Z,18.5
2023-04-08T16:26:36.523Z,18.3
2023-04-08T16:31:32.960Z,16.6
2023-04-08T16:36:29.559Z,14.4
2023-04-08T16:41:26.118Z,13.4
2023-04-08T16:47:36.738Z,13
2023-04-08T16:52:33.213Z,12.9
2023-04-08T16:57:29.772Z,12.4
2023-04-08T17:02:26.445Z,12.3
2023-04-08T17:08:37.010Z,14.7
2023-04-08T17:13:33.469Z,17.4
2023-04-08T17:18:30.002Z,18.8
2023-04-08T17:23:26.540Z,18.7
2023-04-08T17:29:37.265Z,18.2
2023-04-08T17:34:33.733Z,15.4
2023-04-08T17:39:30.310Z,13.4
2023-04-08T17:44:26.887Z,12.5
2023-04-08T17:50:37.485Z,11.5
2023-04-08T17:55:33.998Z,11.4
2023-04-08T18:00:30.504Z,11.7
2023-04-08T18:05:27.164Z,11.7
2023-04-08T18:10:31.812Z,10.9
2023-04-08T18:15:28.435Z,10.9
2023-04-08T18:20:24.897Z,10.1
2023-04-08T18:26:35.590Z,9.5
2023-04-08T18:31:32.054Z,9.4
2023-04-08T18:36:28.675Z,9.3
2023-04-08T18:41:25.251Z,9.2
2023-04-08T18:47:35.847Z,9.1
2023-04-08T18:52:32.340Z,8.9
2023-04-08T18:57:28.953Z,8.5
2023-04-08T19:02:25.581Z,8.5
2023-04-08T19:08:36.058Z,8.3
2023-04-08T19:13:32.589Z,8.5
2023-04-08T19:18:29.149Z,8.8
2023-04-08T19:23:25.697Z,9.2
2023-04-08T19:29:36.395Z,9.2
2023-04-08T19:34:32.844Z,9.4
2023-04-08T19:39:29.392Z,9.5
2023-04-08T19:50:36.644Z,9.4
2023-04-08T19:55:33.100Z,9
2023-04-08T20:00:29.760Z,8.6
2023-04-08T20:05:26.192Z,8.3
2023-04-08T20:11:36.836Z,8.1
2023-04-08T20:16:33.649Z,7.9
2023-04-08T20:21:29.996Z,7.8
2023-04-08T20:26:26.536Z,7.8
2023-04-08T20:32:37.161Z,7.7
2023-04-08T20:37:33.650Z,7.7
2023-04-08T20:42:30.227Z,7.4
2023-04-08T20:47:26.855Z,7.3
2023-04-08T20:53:37.475Z,7.3
2023-04-08T20:58:33.940Z,7.3
2023-04-08T21:03:30.520Z,7.2
2023-04-08T21:08:27.034Z,7.2
2023-04-08T21:14:37.726Z,7.2
2023-04-08T21:19:34.194Z,7.3
2023-04-08T21:24:30.693Z,7.3
2023-04-08T21:29:27.315Z,7.4
2023-04-08T21:35:37.926Z,7.3
2023-04-08T21:40:34.446Z,7.3
2023-04-08T21:45:30.934Z,7.2
2023-04-08T21:50:27.499Z,7.3
2023-04-08T21:56:38.208Z,7.2
2023-04-08T22:01:34.919Z,7.3
2023-04-08T22:06:32.860Z,7.1
2023-04-08T22:11:27.853Z,7.1
2023-04-08T22:16:24.497Z,6.9
2023-04-08T22:22:35.037Z,7.1
2023-04-08T22:27:31.568Z,7.3
2023-04-08T22:32:28.171Z,7.2
2023-04-08T22:38:38.712Z,7.2
2023-04-08T22:43:35.299Z,7.4
2023-04-08T22:48:31.753Z,7.3
2023-04-08T22:53:28.307Z,7.4
2023-04-08T22:58:24.915Z,7.5
2023-04-08T23:04:35.507Z,7.3
2023-04-08T23:09:32.038Z,7.2
2023-04-08T23:14:28.590Z,7.5
2023-04-08T23:19:25.171Z,7.4
2023-04-08T23:25:35.776Z,7.4
2023-04-08T23:30:32.282Z,7.4
2023-04-08T23:35:28.826Z,7.4
2023-04-08T23:40:25.392Z,7.4
2023-04-08T23:46:36.167Z,7.4
2023-04-08T23:51:32.565Z,7.6
2023-04-08T23:56:29.189Z,7.6
